This is the latest recevied weather packets stored in our database for station/object EA1FWM-12. If no packets are shown the sender has not sent any weather packets the latest 10 day(s).
| Time | Temp. | Humidity | Pressure | Rain* | Wind** | Luminosity | Snow |
|---|---|---|---|---|---|---|---|
| 1787507274 | 22.78° C | 51% | 1015.4 hPa | - | - | - | - |
| 1787506374 | 22.22° C | 52% | 1015.4 hPa | - | - | - | - |
| 1787505475 | 22.78° C | 53% | 1015.5 hPa | - | - | - | - |
| 1787504577 | 23.89° C | 51% | 1015.6 hPa | - | - | - | - |
| 1787503677 | 25.56° C | 48% | 1015.7 hPa | - | - | - | - |
| 1787502777 | 26.67° C | 44% | 1015.8 hPa | - | - | - | - |
| 1787501878 | 28.33° C | 38% | 1015.8 hPa | - | - | - | - |
| 1787500978 | 28.89° C | 35% | 1016 hPa | - | - | - | - |
| 1787500073 | 28.33° C | 38% | 1016 hPa | - | - | - | - |
| 1787499173 | 26.67° C | 39% | 1016.3 hPa | - | - | - | - |
| 1787498273 | 26.67° C | 38% | 1016.3 hPa | - | - | - | - |
| 1787497374 | 26.67° C | 40% | 1016.3 hPa | - | - | - | - |
| 1787496482 | 27.22° C | 45% | 1016.4 hPa | - | - | - | - |
| 1787494675 | 28.33° C | 46% | 1016.7 hPa | - | - | - | - |
| 1787492566 | 27.78° C | 53% | 1017 hPa | - | - | - | - |
| 1787491673 | 26.67° C | 55% | 1017.3 hPa | - | - | - | - |
| 1787489866 | 23.33° C | 63% | 1017.5 hPa | - | - | - | - |
| 1787488966 | 21.67° C | 67% | 1017.7 hPa | - | - | - | - |
| 1787488066 | 21.67° C | 67% | 1018.1 hPa | - | - | - | - |
| 1787487167 | 22.22° C | 66% | 1018.2 hPa | - | - | - | - |
| 1787486267 | 23.33° C | 66% | 1018.3 hPa | - | - | - | - |
| 1787485693 | 23.33° C | 67% | 1018.3 hPa | - | - | - | - |
| 1787485367 | 23.33° C | 67% | 1018.3 hPa | - | - | - | - |
| 1787484468 | 23.33° C | 67% | 1018.4 hPa | - | - | - | - |
| 1787483568 | 22.78° C | 70% | 1018.5 hPa | - | - | - | - |
* Rain since midnight (hover to see other rain measurements)
** Current wind speed in m/s (hover to see current wind gust speed)